createdAt,value
2023-02-26T00:01:28.446Z,-0.20
2023-02-26T00:03:57.779Z,-0.20
2023-02-26T00:06:26.349Z,-0.20
2023-02-26T00:08:54.110Z,-0.20
2023-02-26T00:11:21.634Z,-0.30
2023-02-26T00:13:48.593Z,-0.30
2023-02-26T00:16:24.860Z,-0.30
2023-02-26T00:18:52.143Z,-0.30
2023-02-26T00:21:24.145Z,-0.30
2023-02-26T00:23:51.273Z,-0.30
2023-02-26T00:26:18.106Z,-0.40
2023-02-26T00:28:45.172Z,-0.40
2023-02-26T00:31:14.317Z,-0.40
2023-02-26T00:33:41.615Z,-0.40
2023-02-26T00:36:35.753Z,-0.40
2023-02-26T00:39:21.686Z,-0.40
2023-02-26T00:41:48.666Z,-0.40
2023-02-26T00:44:15.620Z,-0.40
2023-02-26T00:46:57.837Z,-0.40
2023-02-26T00:49:46.659Z,-0.30
2023-02-26T00:52:46.127Z,-0.30
2023-02-26T00:55:12.930Z,-0.20
2023-02-26T00:57:39.754Z,-0.20
2023-02-26T01:00:08.080Z,-0.20
2023-02-26T01:02:36.030Z,-0.20
2023-02-26T01:05:04.173Z,-0.20
2023-02-26T01:07:47.069Z,-0.20
2023-02-26T01:10:15.031Z,-0.20
2023-02-26T01:12:42.552Z,-0.20
2023-02-26T01:15:09.945Z,-0.20
2023-02-26T01:18:06.007Z,-0.20
2023-02-26T01:20:53.993Z,-0.30
2023-02-26T01:23:26.449Z,-0.30
2023-02-26T01:26:20.136Z,-0.40
2023-02-26T01:28:47.098Z,-0.40
2023-02-26T01:31:32.951Z,-0.40
2023-02-26T01:34:06.715Z,-0.40
2023-02-26T01:36:40.712Z,-0.40
2023-02-26T01:39:25.674Z,-0.40
2023-02-26T01:42:16.028Z,-0.50
2023-02-26T01:45:04.463Z,-0.60
2023-02-26T01:47:45.251Z,-0.60
2023-02-26T01:50:19.348Z,-0.70
2023-02-26T01:52:48.803Z,-0.70
2023-02-26T01:55:27.388Z,-0.80
2023-02-26T01:57:57.867Z,-0.70
2023-02-26T02:00:24.654Z,-0.70
2023-02-26T02:02:53.590Z,-0.80
2023-02-26T02:05:35.586Z,-0.80
2023-02-26T02:08:02.482Z,-0.80
2023-02-26T02:10:29.872Z,-0.80
2023-02-26T02:13:08.608Z,-0.80
2023-02-26T02:15:51.974Z,-0.80
2023-02-26T02:18:34.877Z,-0.80
2023-02-26T02:21:48.804Z,-0.80
2023-02-26T02:24:34.762Z,-0.80
2023-02-26T02:27:25.968Z,-0.70
2023-02-26T02:30:07.895Z,-0.70
2023-02-26T02:32:44.623Z,-0.60
2023-02-26T02:35:32.269Z,-0.60
2023-02-26T02:38:18.868Z,-0.70
2023-02-26T02:40:52.615Z,-0.70
2023-02-26T02:43:29.816Z,-0.70
2023-02-26T02:46:04.252Z,-0.70
2023-02-26T02:48:43.418Z,-0.70
2023-02-26T02:51:09.964Z,-0.70
2023-02-26T02:53:43.354Z,-0.80
2023-02-26T02:56:19.399Z,-0.70
2023-02-26T02:58:51.955Z,-0.70
2023-02-26T03:01:22.184Z,-0.70
2023-02-26T03:04:02.012Z,-0.70
2023-02-26T03:06:31.412Z,-0.80
2023-02-26T03:08:59.948Z,-0.80
2023-02-26T03:11:26.965Z,-0.80
2023-02-26T03:13:54.686Z,-0.80
2023-02-26T03:16:35.247Z,-0.90
2023-02-26T03:19:31.047Z,-0.90
2023-02-26T03:22:30.982Z,-1.00
2023-02-26T03:25:15.860Z,-1.00
2023-02-26T03:27:57.763Z,-1.10
2023-02-26T03:30:52.406Z,-1.20
2023-02-26T03:33:36.744Z,-1.20
2023-02-26T03:36:24.474Z,-1.20
2023-02-26T03:39:34.207Z,-1.20
2023-02-26T03:42:15.217Z,-1.30
2023-02-26T03:44:58.323Z,-1.30
2023-02-26T03:47:27.244Z,-1.30
2023-02-26T03:50:12.190Z,-1.30
2023-02-26T03:52:50.345Z,-1.40
2023-02-26T03:55:39.498Z,-1.40
2023-02-26T03:58:19.295Z,-1.40
2023-02-26T04:01:10.325Z,-1.30
2023-02-26T04:03:44.990Z,-1.30
2023-02-26T04:06:12.729Z,-1.20
2023-02-26T04:08:40.458Z,-1.20
2023-02-26T04:11:09.714Z,-1.20
2023-02-26T04:13:37.345Z,-1.20
2023-02-26T04:16:04.923Z,-1.10
2023-02-26T04:18:31.978Z,-1.10
2023-02-26T04:20:58.996Z,-1.10
2023-02-26T04:23:26.831Z,-1.10
2023-02-26T04:25:53.823Z,-1.10
2023-02-26T04:28:21.173Z,-1.10
2023-02-26T04:30:48.785Z,-1.10
2023-02-26T04:33:16.400Z,-1.10
2023-02-26T04:35:43.714Z,-1.20
2023-02-26T04:38:10.406Z,-1.20
2023-02-26T04:40:37.173Z,-1.20
2023-02-26T04:43:09.054Z,-1.20
2023-02-26T04:45:49.043Z,-1.20
2023-02-26T04:48:16.306Z,-1.30
2023-02-26T04:50:44.423Z,-1.30
2023-02-26T04:53:11.136Z,-1.30
2023-02-26T04:55:40.912Z,-1.30
2023-02-26T04:58:08.186Z,-1.40
2023-02-26T05:00:35.759Z,-1.40
2023-02-26T05:03:03.252Z,-1.40
2023-02-26T05:05:30.034Z,-1.40
2023-02-26T05:07:56.851Z,-1.40
2023-02-26T05:10:24.874Z,-1.50
2023-02-26T05:12:51.784Z,-1.50
2023-02-26T05:15:19.579Z,-1.40
2023-02-26T05:17:46.420Z,-1.50
2023-02-26T05:20:15.412Z,-1.50
2023-02-26T05:22:42.961Z,-1.50
2023-02-26T05:25:12.421Z,-1.50
2023-02-26T05:27:40.439Z,-1.50
2023-02-26T05:30:08.524Z,-1.50
2023-02-26T05:32:36.707Z,-1.50
2023-02-26T05:35:03.974Z,-1.50
2023-02-26T05:37:30.738Z,-1.50
2023-02-26T05:39:57.413Z,-1.60
2023-02-26T05:42:24.898Z,-1.50
2023-02-26T05:44:51.604Z,-1.60
2023-02-26T05:47:18.257Z,-1.60
2023-02-26T05:49:44.928Z,-1.60
2023-02-26T05:52:11.600Z,-1.60
2023-02-26T05:54:38.224Z,-1.60
2023-02-26T05:57:04.998Z,-1.60
2023-02-26T05:59:31.776Z,-1.60
2023-02-26T06:01:58.642Z,-1.60
2023-02-26T06:04:25.540Z,-1.60
2023-02-26T06:06:52.236Z,-1.60
2023-02-26T06:09:18.903Z,-1.60
2023-02-26T06:11:45.621Z,-1.60
2023-02-26T06:14:12.268Z,-1.60
2023-02-26T06:16:38.957Z,-1.70
2023-02-26T06:19:06.138Z,-1.70
2023-02-26T06:21:32.870Z,-1.70
2023-02-26T06:23:59.600Z,-1.70
2023-02-26T06:26:26.568Z,-1.50
2023-02-26T06:28:53.363Z,-1.70
2023-02-26T06:31:20.077Z,-1.70
2023-02-26T06:33:46.804Z,-1.70
2023-02-26T06:36:13.538Z,-1.70
2023-02-26T06:38:40.227Z,-1.80
2023-02-26T06:41:06.913Z,-1.80
2023-02-26T06:43:33.637Z,-1.80
2023-02-26T06:46:00.749Z,-1.80
2023-02-26T06:48:27.896Z,-1.70
2023-02-26T06:50:54.547Z,-1.70
2023-02-26T06:53:21.249Z,-1.70
2023-02-26T06:55:51.292Z,-1.70
2023-02-26T06:58:18.534Z,-1.70
2023-02-26T07:00:45.548Z,-1.60
2023-02-26T07:03:14.306Z,-1.50
2023-02-26T07:05:41.496Z,-1.50
2023-02-26T07:08:08.591Z,-1.50
2023-02-26T07:10:36.606Z,-1.40
2023-02-26T07:13:03.922Z,-1.30
2023-02-26T07:15:31.693Z,-1.40
2023-02-26T07:18:00.090Z,-1.30
2023-02-26T07:20:29.684Z,-1.30
2023-02-26T07:22:56.599Z,-1.20
2023-02-26T07:25:24.749Z,-1.20
2023-02-26T07:27:51.875Z,-1.10
2023-02-26T07:30:18.682Z,-1.10
2023-02-26T07:32:45.467Z,-1.00
2023-02-26T07:35:12.165Z,-1.00
2023-02-26T07:37:38.888Z,-0.90
2023-02-26T07:40:06.112Z,-0.80
2023-02-26T07:42:32.850Z,-0.60
2023-02-26T07:44:59.758Z,-0.40
2023-02-26T07:47:26.965Z,0.00
2023-02-26T07:49:53.696Z,0.70
2023-02-26T07:52:20.365Z,1.50
2023-02-26T07:54:47.211Z,1.60
2023-02-26T07:57:13.873Z,2.00
2023-02-26T07:59:40.526Z,2.70
2023-02-26T08:02:07.652Z,3.30
2023-02-26T08:04:34.463Z,3.20
2023-02-26T08:07:01.574Z,3.70
2023-02-26T08:09:28.469Z,2.80
2023-02-26T08:11:55.192Z,2.60
2023-02-26T08:14:22.100Z,3.70
2023-02-26T08:16:48.990Z,3.70
2023-02-26T08:19:15.813Z,3.80
2023-02-26T08:21:42.479Z,4.00
2023-02-26T08:24:11.471Z,4.20
2023-02-26T08:26:38.526Z,4.10
2023-02-26T08:29:05.852Z,4.50
2023-02-26T08:31:34.495Z,4.00
2023-02-26T08:34:01.707Z,4.50
2023-02-26T08:36:28.618Z,4.20
2023-02-26T08:38:55.456Z,3.90
2023-02-26T08:41:23.035Z,4.80
2023-02-26T08:43:49.970Z,3.80
2023-02-26T08:46:16.771Z,3.60
2023-02-26T08:48:43.725Z,3.90
2023-02-26T08:51:10.405Z,4.00
2023-02-26T08:53:37.163Z,4.40
2023-02-26T08:56:04.034Z,3.80
2023-02-26T08:58:32.192Z,4.20
2023-02-26T09:00:59.084Z,4.80
2023-02-26T09:03:25.818Z,5.00
2023-02-26T09:05:52.654Z,5.10
2023-02-26T09:08:20.589Z,5.30
2023-02-26T09:10:47.469Z,5.40
2023-02-26T09:13:14.541Z,4.60
2023-02-26T09:15:41.517Z,4.30
2023-02-26T09:18:15.353Z,4.90
2023-02-26T09:20:45.309Z,5.20
2023-02-26T09:23:12.632Z,4.50
2023-02-26T09:25:39.791Z,4.10
2023-02-26T09:28:06.583Z,4.30
2023-02-26T09:30:33.365Z,4.60
2023-02-26T09:33:00.093Z,4.40
2023-02-26T09:35:26.756Z,4.00
2023-02-26T09:37:53.426Z,4.80
2023-02-26T09:40:46.659Z,4.50
2023-02-26T09:43:33.154Z,4.80
2023-02-26T09:46:10.187Z,4.40
2023-02-26T09:48:38.822Z,5.10
2023-02-26T09:51:09.026Z,5.10
2023-02-26T09:53:40.518Z,5.00
2023-02-26T09:56:36.792Z,5.10
2023-02-26T09:59:03.681Z,5.30
2023-02-26T10:01:48.785Z,4.70
2023-02-26T10:04:44.456Z,4.70
2023-02-26T10:07:30.166Z,5.40
2023-02-26T10:10:14.911Z,5.20
2023-02-26T10:12:44.761Z,5.50
2023-02-26T10:15:24.104Z,5.60
2023-02-26T10:18:10.903Z,5.70
2023-02-26T10:20:56.208Z,5.50
2023-02-26T10:24:00.152Z,5.30
2023-02-26T10:26:50.027Z,4.80
2023-02-26T10:29:54.582Z,4.80
2023-02-26T10:32:52.689Z,5.50
2023-02-26T10:35:21.276Z,6.00
2023-02-26T10:38:02.663Z,6.60
2023-02-26T10:40:44.341Z,6.70
2023-02-26T10:43:22.923Z,6.60
2023-02-26T10:46:24.176Z,6.10
2023-02-26T10:49:03.212Z,6.30
2023-02-26T10:51:36.077Z,6.70
2023-02-26T10:54:29.172Z,6.40
2023-02-26T10:56:55.911Z,6.60
2023-02-26T10:59:23.487Z,6.00
2023-02-26T11:01:51.626Z,5.30
2023-02-26T11:04:26.094Z,4.40
2023-02-26T11:06:57.678Z,4.00
2023-02-26T11:09:32.806Z,3.90
2023-02-26T11:12:15.372Z,3.70
2023-02-26T11:14:47.624Z,3.70
2023-02-26T11:17:19.135Z,3.70
2023-02-26T11:19:57.894Z,3.80
2023-02-26T11:22:32.694Z,4.10
2023-02-26T11:25:00.487Z,4.80
2023-02-26T11:27:31.967Z,4.90
2023-02-26T11:30:04.506Z,4.40
2023-02-26T11:32:34.760Z,4.10
2023-02-26T11:35:01.530Z,3.90
2023-02-26T11:37:31.184Z,4.10
2023-02-26T11:40:00.208Z,3.80
2023-02-26T11:42:27.818Z,3.80
2023-02-26T11:44:55.718Z,3.80
2023-02-26T11:47:27.178Z,3.90
2023-02-26T11:49:55.678Z,3.70
2023-02-26T11:52:35.938Z,3.60
2023-02-26T11:55:06.641Z,4.30
2023-02-26T11:57:33.851Z,4.80
2023-02-26T12:00:01.445Z,5.30
2023-02-26T12:02:35.118Z,5.00
2023-02-26T12:05:05.814Z,4.50
2023-02-26T12:07:32.601Z,4.20
2023-02-26T12:09:59.381Z,4.20
2023-02-26T12:12:26.075Z,4.30
2023-02-26T12:15:17.578Z,4.40
2023-02-26T12:18:18.573Z,4.40
2023-02-26T12:21:17.919Z,4.10
2023-02-26T12:23:56.596Z,4.10
2023-02-26T12:26:38.455Z,4.10
2023-02-26T12:29:27.536Z,4.10
2023-02-26T12:32:32.231Z,3.80
2023-02-26T12:35:31.248Z,3.80
2023-02-26T12:38:23.047Z,4.30
2023-02-26T12:41:21.470Z,5.00
2023-02-26T12:43:51.215Z,6.00
2023-02-26T12:46:42.532Z,5.90
2023-02-26T12:49:27.901Z,5.40
2023-02-26T12:52:17.717Z,5.20
2023-02-26T12:55:15.345Z,4.90
2023-02-26T12:58:06.095Z,4.60
2023-02-26T13:00:57.188Z,4.40
2023-02-26T13:03:23.887Z,4.40
2023-02-26T13:06:06.133Z,4.40
2023-02-26T13:08:43.745Z,4.40
2023-02-26T13:11:49.097Z,4.30
2023-02-26T13:14:37.316Z,4.00
2023-02-26T13:17:18.862Z,4.40
2023-02-26T13:19:53.800Z,5.50
2023-02-26T13:22:38.190Z,7.00
2023-02-26T13:25:09.845Z,7.00
2023-02-26T13:27:39.205Z,7.40
2023-02-26T13:30:41.077Z,8.20
2023-02-26T13:33:23.445Z,6.70
2023-02-26T13:35:53.485Z,5.50
2023-02-26T13:38:22.452Z,5.00
2023-02-26T13:41:01.197Z,4.90
2023-02-26T13:43:41.382Z,6.00
2023-02-26T13:46:26.087Z,7.50
2023-02-26T13:49:06.730Z,7.50
2023-02-26T13:51:42.652Z,6.90
2023-02-26T13:54:14.148Z,6.90
2023-02-26T13:56:46.638Z,6.70
2023-02-26T13:59:13.595Z,7.10
2023-02-26T14:01:47.930Z,7.80
2023-02-26T14:04:23.719Z,8.00
2023-02-26T14:07:05.921Z,8.80
2023-02-26T14:09:35.686Z,8.70
2023-02-26T14:12:25.084Z,8.70
2023-02-26T14:15:12.877Z,8.30
2023-02-26T14:17:47.989Z,8.00
2023-02-26T14:20:25.106Z,8.10
2023-02-26T14:22:59.594Z,7.90
2023-02-26T14:25:37.633Z,7.90
2023-02-26T14:28:26.288Z,7.60
2023-02-26T14:31:05.674Z,7.70
2023-02-26T14:33:47.318Z,8.40
2023-02-26T14:36:20.188Z,7.80
2023-02-26T14:38:48.693Z,8.50
2023-02-26T14:41:33.415Z,8.50
2023-02-26T14:44:11.603Z,7.30
2023-02-26T14:46:39.916Z,7.10
2023-02-26T14:49:36.862Z,6.80
2023-02-26T14:52:42.857Z,6.80
2023-02-26T14:55:38.244Z,7.50
2023-02-26T14:58:25.171Z,7.00
2023-02-26T15:01:12.574Z,7.20
2023-02-26T15:03:57.354Z,7.30
2023-02-26T15:06:36.089Z,6.80
2023-02-26T15:09:36.605Z,7.30
2023-02-26T15:12:32.378Z,7.30
2023-02-26T15:15:28.034Z,7.50
2023-02-26T15:18:15.878Z,7.80
2023-02-26T15:20:58.819Z,8.30
2023-02-26T15:23:46.669Z,7.70
2023-02-26T15:26:30.801Z,7.00
2023-02-26T15:28:59.440Z,6.40
2023-02-26T15:31:34.154Z,5.80
2023-02-26T15:34:03.022Z,5.60
2023-02-26T15:36:31.512Z,5.20
2023-02-26T15:39:01.756Z,5.10
2023-02-26T15:41:30.558Z,5.00
2023-02-26T15:44:02.011Z,4.80
2023-02-26T15:46:33.509Z,4.60
2023-02-26T15:49:07.224Z,4.50
2023-02-26T15:51:34.296Z,4.50
2023-02-26T15:54:03.318Z,4.20
2023-02-26T15:56:33.873Z,4.20
2023-02-26T15:59:08.395Z,4.20
2023-02-26T16:01:36.693Z,4.20
2023-02-26T16:04:07.698Z,4.30
2023-02-26T16:06:37.984Z,4.60
2023-02-26T16:09:07.304Z,5.10
2023-02-26T16:11:39.694Z,5.00
2023-02-26T16:14:08.212Z,5.00
2023-02-26T16:16:55.884Z,4.80
2023-02-26T16:19:36.121Z,4.50
2023-02-26T16:22:17.216Z,4.30
2023-02-26T16:24:45.022Z,4.10
2023-02-26T16:27:13.873Z,4.00
2023-02-26T16:29:50.805Z,3.80
2023-02-26T16:32:18.435Z,3.70
2023-02-26T16:34:54.849Z,3.80
2023-02-26T16:37:33.561Z,3.80
2023-02-26T16:40:15.407Z,3.80
2023-02-26T16:42:48.426Z,3.90
2023-02-26T16:45:29.042Z,3.90
2023-02-26T16:47:58.459Z,3.90
2023-02-26T16:50:31.990Z,3.90
2023-02-26T16:53:07.112Z,3.80
2023-02-26T16:55:36.927Z,3.80
2023-02-26T16:58:07.762Z,3.70
2023-02-26T17:00:37.857Z,3.70
2023-02-26T17:03:18.506Z,3.50
2023-02-26T17:06:14.658Z,3.40
2023-02-26T17:08:54.131Z,3.40
2023-02-26T17:11:30.306Z,3.40
2023-02-26T17:14:13.315Z,3.30
2023-02-26T17:16:40.023Z,3.20
2023-02-26T17:19:06.884Z,3.10
2023-02-26T17:21:34.797Z,3.00
2023-02-26T17:24:01.715Z,3.00
2023-02-26T17:26:29.401Z,3.00
2023-02-26T17:28:56.149Z,3.00
2023-02-26T17:31:23.449Z,3.00
2023-02-26T17:33:50.948Z,3.00
2023-02-26T17:36:20.885Z,3.10
2023-02-26T17:38:48.404Z,3.00
2023-02-26T17:41:17.644Z,3.00
2023-02-26T17:43:44.522Z,3.00
2023-02-26T17:46:12.427Z,3.00
2023-02-26T17:48:39.605Z,3.00
2023-02-26T17:51:07.087Z,2.90
2023-02-26T17:53:40.755Z,2.90
2023-02-26T17:56:15.859Z,2.80
2023-02-26T17:58:42.901Z,2.90
2023-02-26T18:01:10.961Z,2.80
2023-02-26T18:03:39.787Z,2.80
2023-02-26T18:06:07.107Z,2.70
2023-02-26T18:08:35.843Z,2.70
2023-02-26T18:11:03.362Z,2.60
2023-02-26T18:13:30.701Z,2.60
2023-02-26T18:15:58.794Z,2.50
2023-02-26T18:18:26.640Z,2.50
2023-02-26T18:20:54.158Z,2.40
2023-02-26T18:23:21.408Z,2.50
2023-02-26T18:25:51.007Z,2.40
2023-02-26T18:28:23.229Z,2.40
2023-02-26T18:30:51.049Z,2.30
2023-02-26T18:33:18.855Z,2.30
2023-02-26T18:35:48.866Z,2.40
2023-02-26T18:38:18.130Z,2.40
2023-02-26T18:40:46.866Z,2.40
2023-02-26T18:43:13.898Z,2.40
2023-02-26T18:45:41.683Z,2.30
2023-02-26T18:48:11.814Z,2.30
2023-02-26T18:50:38.678Z,2.30
2023-02-26T18:53:05.466Z,2.30
2023-02-26T18:55:32.144Z,2.30
2023-02-26T18:57:58.855Z,2.30
2023-02-26T19:00:28.061Z,2.20
2023-02-26T19:02:55.898Z,2.20
2023-02-26T19:05:26.607Z,2.20
2023-02-26T19:07:54.287Z,2.10
2023-02-26T19:10:22.328Z,2.20
2023-02-26T19:12:50.959Z,2.30
2023-02-26T19:15:17.914Z,2.30
2023-02-26T19:17:44.837Z,2.30
2023-02-26T19:20:13.143Z,2.20
2023-02-26T19:22:40.341Z,2.20
2023-02-26T19:25:07.799Z,2.20
2023-02-26T19:27:34.730Z,2.20
2023-02-26T19:30:03.499Z,2.20
2023-02-26T19:32:30.664Z,2.10
2023-02-26T19:34:58.650Z,2.10
2023-02-26T19:37:25.361Z,2.10
2023-02-26T19:39:52.020Z,2.10
2023-02-26T19:42:18.748Z,2.10
2023-02-26T19:44:45.408Z,2.10
2023-02-26T19:47:12.075Z,2.20
2023-02-26T19:49:38.712Z,2.20
2023-02-26T19:52:08.880Z,2.20
2023-02-26T19:54:35.810Z,2.10
2023-02-26T19:57:02.470Z,2.00
2023-02-26T19:59:29.489Z,2.00
2023-02-26T20:01:56.939Z,2.00
2023-02-26T20:04:23.614Z,1.90
2023-02-26T20:06:50.949Z,1.90
2023-02-26T20:09:20.063Z,1.80
2023-02-26T20:11:47.429Z,1.80
2023-02-26T20:14:14.820Z,1.70
2023-02-26T20:16:41.517Z,1.60
2023-02-26T20:19:08.530Z,1.50
2023-02-26T20:21:35.510Z,1.60
2023-02-26T20:24:02.107Z,1.70
2023-02-26T20:26:28.878Z,1.70
2023-02-26T20:28:55.544Z,1.70
2023-02-26T20:31:22.433Z,1.70
2023-02-26T20:33:49.282Z,1.70
2023-02-26T20:36:16.438Z,1.60
2023-02-26T20:38:43.230Z,1.60
2023-02-26T20:41:10.487Z,1.60
2023-02-26T20:43:37.212Z,1.70
2023-02-26T20:46:04.344Z,1.70
2023-02-26T20:48:31.360Z,1.80
2023-02-26T20:51:02.780Z,1.80
2023-02-26T20:53:29.468Z,1.70
2023-02-26T20:55:56.483Z,1.60
2023-02-26T20:58:24.272Z,1.60
2023-02-26T21:00:54.539Z,1.50
2023-02-26T21:03:21.302Z,1.40
2023-02-26T21:05:48.076Z,1.40
2023-02-26T21:08:14.902Z,1.40
2023-02-26T21:10:41.597Z,1.30
2023-02-26T21:13:09.270Z,1.40
2023-02-26T21:15:36.512Z,1.30
2023-02-26T21:18:03.434Z,1.30
2023-02-26T21:20:30.099Z,1.20
2023-02-26T21:22:56.779Z,1.20
2023-02-26T21:25:23.488Z,1.20
2023-02-26T21:27:50.199Z,1.20
2023-02-26T21:30:17.245Z,1.20
2023-02-26T21:32:44.020Z,1.20
2023-02-26T21:35:15.667Z,1.20
2023-02-26T21:37:43.632Z,1.20
2023-02-26T21:40:13.192Z,1.10
2023-02-26T21:42:40.190Z,1.00
2023-02-26T21:45:07.717Z,1.00
2023-02-26T21:47:34.415Z,0.90
2023-02-26T21:50:01.050Z,0.80
2023-02-26T21:52:28.794Z,0.80
2023-02-26T21:54:57.105Z,0.70
2023-02-26T21:57:24.876Z,0.60
2023-02-26T21:59:52.065Z,0.50
2023-02-26T22:02:18.782Z,0.60
2023-02-26T22:09:58.521Z,0.50
2023-02-26T22:12:25.951Z,0.40
2023-02-26T22:14:52.670Z,0.30
2023-02-26T22:17:19.448Z,0.20
2023-02-26T22:19:46.070Z,0.20
2023-02-26T22:22:12.757Z,0.10
2023-02-26T22:24:40.924Z,0.00
2023-02-26T22:27:07.549Z,0.00
2023-02-26T22:29:34.202Z,-0.10
2023-02-26T22:32:00.945Z,-0.10
2023-02-26T22:34:27.692Z,0.00
2023-02-26T22:36:54.752Z,-0.10
2023-02-26T22:39:21.613Z,-0.10
2023-02-26T22:41:48.422Z,-0.10
2023-02-26T22:44:15.159Z,-0.10
2023-02-26T22:46:42.846Z,-0.10
2023-02-26T22:49:09.561Z,-0.10
2023-02-26T22:51:36.337Z,0.00
2023-02-26T22:54:03.227Z,0.00
2023-02-26T22:56:30.198Z,-0.10
2023-02-26T22:58:57.215Z,-0.20
2023-02-26T23:01:24.156Z,-0.20
2023-02-26T23:03:50.851Z,-0.30
2023-02-26T23:06:17.736Z,-0.40
2023-02-26T23:08:44.451Z,-0.50
2023-02-26T23:11:11.099Z,-0.60
2023-02-26T23:13:38.115Z,-0.60
2023-02-26T23:16:08.661Z,-0.70
2023-02-26T23:18:36.579Z,-0.70
2023-02-26T23:21:05.568Z,-0.80
2023-02-26T23:23:33.237Z,-0.80
2023-02-26T23:26:00.254Z,-0.90
2023-02-26T23:28:26.986Z,-1.00
2023-02-26T23:30:53.924Z,-1.00
2023-02-26T23:33:20.873Z,-1.00
2023-02-26T23:35:47.887Z,-1.00
2023-02-26T23:38:14.614Z,-1.10
2023-02-26T23:40:41.674Z,-1.10
2023-02-26T23:43:08.353Z,-1.10
2023-02-26T23:45:35.347Z,-1.20
2023-02-26T23:48:02.014Z,-1.20
2023-02-26T23:50:28.643Z,-1.20
2023-02-26T23:52:55.317Z,-1.20
2023-02-26T23:55:22.058Z,-1.20
2023-02-26T23:57:48.775Z,-1.20
